createdAt,value
2017-05-25T00:00:37.566Z,87.92
2017-05-25T00:01:37.285Z,88.01
2017-05-25T00:04:37.354Z,88.49
2017-05-25T00:05:37.682Z,88.4
2017-05-25T00:07:37.727Z,89.06
2017-05-25T00:08:37.450Z,88.73
2017-05-25T00:09:52.387Z,89.02
2017-05-25T00:10:37.795Z,88.73
2017-05-25T00:11:37.818Z,89.21
2017-05-25T00:12:37.841Z,89.12
2017-05-25T00:13:37.559Z,89.64
2017-05-25T00:14:37.583Z,89.69
2017-05-25T00:15:37.912Z,89.4
2017-05-25T00:16:37.930Z,89.73
2017-05-25T00:17:37.956Z,89.59
2017-05-25T00:18:37.978Z,89.5
2017-05-25T00:19:38.000Z,89.59
2017-05-25T00:20:37.719Z,89.69
2017-05-25T00:21:38.046Z,89.97
2017-05-25T00:22:38.069Z,89.88
2017-05-25T00:23:38.094Z,89.78
2017-05-25T00:24:38.114Z,89.78
2017-05-25T00:25:52.753Z,90.36
2017-05-25T00:26:38.160Z,89.97
2017-05-25T00:27:38.186Z,89.97
2017-05-25T00:28:37.903Z,90.07
2017-05-25T00:29:38.229Z,89.97
2017-05-25T00:30:38.251Z,90.55
2017-05-25T00:31:38.273Z,89.97
2017-05-25T00:32:38.363Z,90.45
2017-05-25T00:33:38.321Z,90.45
2017-05-25T00:34:38.344Z,90.73
2017-05-25T00:35:38.363Z,90.83
2017-05-25T00:36:38.146Z,90.93
2017-05-25T00:37:38.414Z,90.45
2017-05-25T00:38:38.434Z,90.73
2017-05-25T00:39:38.455Z,90.93
2017-05-25T00:40:53.097Z,90.93
2017-05-25T00:41:38.504Z,90.83
2017-05-25T00:42:38.527Z,91.31
2017-05-25T00:43:38.549Z,90.73
2017-05-25T00:44:38.570Z,91.31
2017-05-25T00:45:38.594Z,91.21
2017-05-25T00:46:38.614Z,91.12
2017-05-25T00:47:38.641Z,90.45
2017-05-25T00:48:38.662Z,90.83
2017-05-25T00:49:38.685Z,90.93
2017-05-25T00:51:38.727Z,90.83
2017-05-25T00:52:38.756Z,91.21
2017-05-25T00:53:38.778Z,91.78
2017-05-25T00:54:38.796Z,91.5
2017-05-25T00:55:38.819Z,91.21
2017-05-25T00:56:38.843Z,91.31
2017-05-25T00:57:38.864Z,91.78
2017-05-25T00:58:38.887Z,91.46
2017-05-25T00:59:38.909Z,91.5
2017-05-25T01:00:38.930Z,91.6
2017-05-25T01:01:38.954Z,91.17
2017-05-25T01:02:38.979Z,91.6
2017-05-25T01:03:39.001Z,91.46
2017-05-25T01:04:39.036Z,91.93
2017-05-25T01:06:39.068Z,91.74
2017-05-25T01:07:39.091Z,91.74
2017-05-25T01:08:39.112Z,91.93
2017-05-25T01:10:39.159Z,92.12
2017-05-25T01:11:39.180Z,91.83
2017-05-25T01:12:53.819Z,92.22
2017-05-25T01:13:39.227Z,92.5
2017-05-25T01:14:39.250Z,92.69
2017-05-25T01:15:39.271Z,92.03
2017-05-25T01:16:39.295Z,92.03
2017-05-25T01:17:39.316Z,92.32
2017-05-25T01:18:39.340Z,92.69
2017-05-25T01:19:39.360Z,92.88
2017-05-25T01:20:39.382Z,92.5
2017-05-25T01:21:39.404Z,92.5
2017-05-25T01:22:39.124Z,92.88
2017-05-25T01:23:39.450Z,92.88
2017-05-25T01:24:39.476Z,92.69
2017-05-25T01:25:39.195Z,93.17
2017-05-25T01:26:39.213Z,92.98
2017-05-25T01:27:39.539Z,92.79
2017-05-25T01:28:54.179Z,93.46
2017-05-25T01:29:39.585Z,93.17
2017-05-25T01:30:39.305Z,93.27
2017-05-25T01:31:39.630Z,93.17
2017-05-25T01:32:39.350Z,93.08
2017-05-25T01:33:39.675Z,93.65
2017-05-25T01:34:39.696Z,93.65
2017-05-25T01:35:39.416Z,93.84
2017-05-25T01:36:39.438Z,93.17
2017-05-25T01:37:39.764Z,93.55
2017-05-25T01:38:39.790Z,93.65
2017-05-25T01:39:39.811Z,93.46
2017-05-25T01:40:39.529Z,93.74
2017-05-25T01:41:39.548Z,93.65
2017-05-25T01:42:39.877Z,93.55
2017-05-25T01:43:39.901Z,93.36
2017-05-25T01:44:54.536Z,93.84
2017-05-25T01:45:39.943Z,93.84
2017-05-25T01:46:39.661Z,93.65
2017-05-25T01:47:39.686Z,93.55
2017-05-25T01:48:40.010Z,93.55
2017-05-25T01:49:40.032Z,93.74
2017-05-25T01:50:40.055Z,93.65
2017-05-25T01:51:40.078Z,93.84
2017-05-25T01:52:40.098Z,93.65
2017-05-25T01:53:39.819Z,93.74
2017-05-25T01:54:40.146Z,94.03
2017-05-25T01:55:40.235Z,93.55
2017-05-25T01:56:40.188Z,93.65
2017-05-25T01:57:40.212Z,94.12
2017-05-25T01:58:40.234Z,93.74
2017-05-25T01:59:40.257Z,94.12
2017-05-25T02:00:54.894Z,94.03
2017-05-25T02:01:40.299Z,93.93
2017-05-25T02:02:40.323Z,94.32
2017-05-25T02:03:40.344Z,94.32
2017-05-25T02:04:40.366Z,94.22
2017-05-25T02:05:40.389Z,94.03
2017-05-25T02:06:40.411Z,94.41
2017-05-25T02:07:40.440Z,94.51
2017-05-25T02:08:40.458Z,94.6
2017-05-25T02:09:40.483Z,94.7
2017-05-25T02:10:40.501Z,94.7
2017-05-25T02:11:40.522Z,94.98
2017-05-25T02:12:40.547Z,94.98
2017-05-25T02:13:40.571Z,95.46
2017-05-25T02:14:40.600Z,95.03
2017-05-25T02:15:55.230Z,95.27
2017-05-25T02:16:40.334Z,95.08
2017-05-25T02:17:40.661Z,94.98
2017-05-25T02:18:40.681Z,94.79
2017-05-25T02:19:40.701Z,95.08
2017-05-25T02:20:40.723Z,94.89
2017-05-25T02:21:40.747Z,94.89
2017-05-25T02:22:40.769Z,94.89
2017-05-25T02:23:40.793Z,94.89
2017-05-25T02:24:40.864Z,94.89
2017-05-25T02:25:40.836Z,94.79
2017-05-25T02:26:40.857Z,94.89
2017-05-25T02:28:40.901Z,95.08
2017-05-25T02:29:40.924Z,95.03
2017-05-25T02:30:40.946Z,94.93
2017-05-25T02:31:40.970Z,95.12
2017-05-25T02:32:40.992Z,95.17
2017-05-25T02:33:41.012Z,95.12
2017-05-25T02:34:41.036Z,95.32
2017-05-25T02:35:41.057Z,95.27
2017-05-25T02:36:41.081Z,95.61
2017-05-25T02:37:41.105Z,95.46
2017-05-25T02:38:41.124Z,95.75
2017-05-25T02:39:41.146Z,95.7
2017-05-25T02:40:41.169Z,95.61
2017-05-25T02:41:41.190Z,95.79
2017-05-25T02:43:41.236Z,95.79
2017-05-25T02:44:41.259Z,95.61
2017-05-25T02:45:41.282Z,95.98
2017-05-25T02:46:41.300Z,95.51
2017-05-25T02:47:55.940Z,96.27
2017-05-25T02:48:41.349Z,96.17
2017-05-25T02:49:41.368Z,96.27
2017-05-25T02:50:41.392Z,96.08
2017-05-25T02:51:41.413Z,95.98
2017-05-25T02:52:41.434Z,96.27
2017-05-25T02:53:41.458Z,95.98
2017-05-25T02:54:41.479Z,96.08
2017-05-25T02:55:41.501Z,96.27
2017-05-25T02:56:41.523Z,96.17
2017-05-25T02:58:41.571Z,95.89
2017-05-25T02:59:41.589Z,95.89
2017-05-25T03:00:41.309Z,96.08
2017-05-25T03:01:41.633Z,95.98
2017-05-25T03:02:41.354Z,96.08
2017-05-25T03:03:56.295Z,96.08
2017-05-25T03:04:41.700Z,95.98
2017-05-25T03:05:41.722Z,96.08
2017-05-25T03:06:41.745Z,95.89
2017-05-25T03:07:42.092Z,96.56
2017-05-25T03:08:41.789Z,96.08
2017-05-25T03:09:41.809Z,96.36
2017-05-25T03:10:41.832Z,96.36
2017-05-25T03:11:41.854Z,96.08
2017-05-25T03:12:41.876Z,96.46
2017-05-25T03:13:41.899Z,96.36
2017-05-25T03:14:41.922Z,96.08
2017-05-25T03:16:41.965Z,96.27
2017-05-25T03:17:41.989Z,96.17
2017-05-25T03:18:42.012Z,96.46
2017-05-25T03:19:56.650Z,96.08
2017-05-25T03:20:42.057Z,95.98
2017-05-25T03:21:42.082Z,95.89
2017-05-25T03:22:42.097Z,95.98
2017-05-25T03:23:42.120Z,95.7
2017-05-25T03:24:42.141Z,96.03
2017-05-25T03:25:42.165Z,95.84
2017-05-25T03:26:42.188Z,95.79
2017-05-25T03:27:42.211Z,96.17
2017-05-25T03:28:42.231Z,95.61
2017-05-25T03:29:42.252Z,96.13
2017-05-25T03:30:42.274Z,95.79
2017-05-25T03:32:42.321Z,95.56
2017-05-25T03:33:42.341Z,95.17
2017-05-25T03:34:42.365Z,95.08
2017-05-25T03:35:57.002Z,94.98
2017-05-25T03:36:42.408Z,95.27
2017-05-25T03:37:42.129Z,95.37
2017-05-25T03:38:42.455Z,95.08
2017-05-25T03:39:42.474Z,95.27
2017-05-25T03:40:42.499Z,95.37
2017-05-25T03:41:42.519Z,94.89
2017-05-25T03:42:42.543Z,94.79
2017-05-25T03:43:42.564Z,94.89
2017-05-25T03:44:42.587Z,94.51
2017-05-25T03:46:42.635Z,93.84
2017-05-25T03:47:42.656Z,94.03
2017-05-25T03:48:42.679Z,94.12
2017-05-25T03:49:42.700Z,94.03
2017-05-25T03:50:57.339Z,94.03
2017-05-25T03:51:42.747Z,93.93
2017-05-25T03:52:42.771Z,93.46
2017-05-25T03:53:42.791Z,93.55
2017-05-25T03:54:42.812Z,93.55
2017-05-25T03:55:42.836Z,93.84
2017-05-25T03:56:42.554Z,93.36
2017-05-25T03:57:42.879Z,93.46
2017-05-25T03:58:42.902Z,93.36
2017-05-25T03:59:42.923Z,93.55
2017-05-25T04:00:42.645Z,93.46
2017-05-25T04:01:42.666Z,93.55
2017-05-25T04:04:43.038Z,92.93
2017-05-25T04:05:43.063Z,93.12
2017-05-25T04:06:42.780Z,93.02
2017-05-25T04:07:43.105Z,92.93
2017-05-25T04:08:42.824Z,93.46
2017-05-25T04:09:43.150Z,93.41
2017-05-25T04:10:43.173Z,93.41
2017-05-25T04:11:43.197Z,92.83
2017-05-25T04:12:43.221Z,91.78
2017-05-25T04:13:43.245Z,91.26
2017-05-25T04:14:43.265Z,90.59
2017-05-25T04:15:43.289Z,90.31
2017-05-25T04:16:43.310Z,89.73
2017-05-25T04:17:43.335Z,90.31
2017-05-25T04:18:43.358Z,89.54
2017-05-25T04:19:43.380Z,90.31
2017-05-25T04:20:43.402Z,90.21
2017-05-25T04:21:43.424Z,90.31
2017-05-25T04:22:58.065Z,90.4
2017-05-25T04:23:43.473Z,89.73
2017-05-25T04:24:43.495Z,89.83
2017-05-25T04:25:43.517Z,89.68
2017-05-25T04:26:43.540Z,88.82
2017-05-25T04:27:43.567Z,88.44
2017-05-25T04:28:43.591Z,88.34
2017-05-25T04:29:43.609Z,88.63
2017-05-25T04:30:43.637Z,88.54
2017-05-25T04:31:43.657Z,89.25
2017-05-25T04:32:43.681Z,89.11
2017-05-25T04:33:43.703Z,88.82
2017-05-25T04:35:43.752Z,88.06
2017-05-25T04:37:43.799Z,83.56
2017-05-25T04:38:58.438Z,81.63
2017-05-25T04:39:43.543Z,80.58
2017-05-25T04:40:43.869Z,77.84
2017-05-25T04:41:43.896Z,75.43
2017-05-25T04:42:43.919Z,74.66
2017-05-25T04:43:43.944Z,72.24
2017-05-25T04:44:43.971Z,69.4
2017-05-25T04:45:43.994Z,68.37
2017-05-25T04:46:44.023Z,66.39
2017-05-25T04:47:44.048Z,65.37
2017-05-25T04:48:44.073Z,64.34
2017-05-25T04:49:44.100Z,63.28
2017-05-25T04:51:44.159Z,62.54
2017-05-25T04:52:44.181Z,62.8
2017-05-25T04:53:44.210Z,63.38
2017-05-25T04:54:58.853Z,61.19
2017-05-25T04:55:44.264Z,59.72
2017-05-25T04:56:44.292Z,60.07
2017-05-25T04:57:44.323Z,59.59
2017-05-25T04:58:44.346Z,58.2
2017-05-25T04:59:44.381Z,58.2
2017-05-25T05:00:44.413Z,56.95
2017-05-25T05:01:44.440Z,57.01
2017-05-25T05:02:44.466Z,58.37
2017-05-25T05:03:44.497Z,59.59
2017-05-25T05:04:44.525Z,60.14
2017-05-25T05:05:44.555Z,59.04
2017-05-25T05:06:44.586Z,57.62
2017-05-25T05:07:44.617Z,55.92
2017-05-25T05:08:44.648Z,54.98
2017-05-25T05:09:44.678Z,53.56
2017-05-25T05:10:59.326Z,52.04
2017-05-25T05:11:44.742Z,50.55
2017-05-25T05:12:44.468Z,51.23
2017-05-25T05:13:44.801Z,49.97
2017-05-25T05:14:44.835Z,49.41
2017-05-25T05:15:44.865Z,48.95
2017-05-25T05:16:44.895Z,50.35
2017-05-25T05:17:44.928Z,49.77
2017-05-25T05:18:44.962Z,48.83
2017-05-25T05:19:44.993Z,47.31
2017-05-25T05:20:45.028Z,46.48
2017-05-25T05:21:44.759Z,45.83
2017-05-25T05:22:45.092Z,44.1
2017-05-25T05:23:45.127Z,43.35
2017-05-25T05:24:45.159Z,44.01
2017-05-25T05:25:59.812Z,44.09
2017-05-25T05:26:45.228Z,43.54
2017-05-25T05:27:45.261Z,42.11
2017-05-25T05:28:45.296Z,42.6
2017-05-25T05:29:45.333Z,42.75
2017-05-25T05:30:45.363Z,42.02
2017-05-25T05:31:45.396Z,41.64
2017-05-25T05:32:45.432Z,40.77
2017-05-25T05:33:45.463Z,40.41
2017-05-25T05:34:45.498Z,40.31
2017-05-25T05:35:45.228Z,39.45
2017-05-25T05:36:45.568Z,39.57
2017-05-25T05:37:45.601Z,37.92
2017-05-25T05:38:45.636Z,37.93
2017-05-25T05:39:45.675Z,38.15
2017-05-25T05:40:45.707Z,37.35
2017-05-25T05:41:45.745Z,38.67
2017-05-25T05:42:45.778Z,40.29
2017-05-25T05:43:45.510Z,41.05
2017-05-25T05:44:45.851Z,40.48
2017-05-25T05:45:45.881Z,38.46
2017-05-25T05:46:45.613Z,38.6
2017-05-25T05:47:45.651Z,37.54
2017-05-25T05:48:45.989Z,37.18
2017-05-25T05:49:46.022Z,38.13
2017-05-25T05:50:46.060Z,37.14
2017-05-25T05:51:46.095Z,37.16
2017-05-25T05:52:46.130Z,37.62
2017-05-25T05:53:46.169Z,36.28
2017-05-25T05:54:46.203Z,35.46
2017-05-25T05:55:46.237Z,34.99
2017-05-25T05:56:46.279Z,34.22
2017-05-25T05:58:00.929Z,35.2
2017-05-25T05:58:46.348Z,35.44
2017-05-25T05:59:46.385Z,35.55
2017-05-25T06:00:46.417Z,39.16
2017-05-25T06:01:46.455Z,40.64
2017-05-25T06:02:46.491Z,39.57
2017-05-25T06:03:46.530Z,37.88
2017-05-25T06:04:46.564Z,37.14
2017-05-25T06:05:46.600Z,36.96
2017-05-25T06:06:46.637Z,36.57
2017-05-25T06:07:46.368Z,36.1
2017-05-25T06:09:46.747Z,34.89
2017-05-25T06:10:46.783Z,34.03
2017-05-25T06:11:46.819Z,33.25
2017-05-25T06:12:46.857Z,35
2017-05-25T06:14:01.510Z,36.65
2017-05-25T06:14:46.929Z,36.46
2017-05-25T06:15:46.964Z,35.7
2017-05-25T06:16:47.001Z,35.46
2017-05-25T06:17:47.038Z,35.34
2017-05-25T06:18:47.077Z,34.58
2017-05-25T06:19:47.115Z,33.93
2017-05-25T06:20:47.148Z,32.78
2017-05-25T06:21:46.883Z,33.75
2017-05-25T06:22:47.223Z,34.31
2017-05-25T06:23:47.262Z,33.15
2017-05-25T06:24:47.300Z,33.15
2017-05-25T06:25:47.337Z,32.68
2017-05-25T06:26:47.370Z,32.78
2017-05-25T06:27:47.406Z,33.92
2017-05-25T06:28:47.446Z,35.85
2017-05-25T06:30:02.102Z,36.44
2017-05-25T06:30:47.519Z,35.99
2017-05-25T06:31:47.555Z,36.28
2017-05-25T06:32:47.593Z,36.28
2017-05-25T06:33:47.630Z,35.03
2017-05-25T06:34:47.364Z,35.05
2017-05-25T06:35:47.704Z,34.78
2017-05-25T06:36:47.439Z,35.93
2017-05-25T06:37:47.777Z,35.99
2017-05-25T06:39:47.854Z,35.13
2017-05-25T06:41:47.927Z,34.01
2017-05-25T06:42:47.660Z,34.42
2017-05-25T06:43:48.003Z,33.54
2017-05-25T06:44:48.038Z,32.87
2017-05-25T06:46:02.696Z,33.25
2017-05-25T06:46:48.111Z,32.78
2017-05-25T06:47:48.156Z,33.26
2017-05-25T06:48:48.187Z,33.04
2017-05-25T06:49:48.225Z,32.76
2017-05-25T06:50:48.263Z,33.23
2017-05-25T06:51:48.299Z,33.43
2017-05-25T06:52:48.338Z,33.72
2017-05-25T06:53:48.375Z,34.76
2017-05-25T06:54:48.412Z,35.7
2017-05-25T06:55:48.447Z,35.61
2017-05-25T06:57:48.529Z,33.41
2017-05-25T06:58:48.565Z,33.9
2017-05-25T06:59:48.599Z,33.8
2017-05-25T07:01:03.257Z,34.84
2017-05-25T07:01:48.675Z,33.78
2017-05-25T07:02:48.713Z,33.78
2017-05-25T07:03:48.751Z,33.31
2017-05-25T07:04:48.787Z,33.43
2017-05-25T07:05:48.825Z,32.75
2017-05-25T07:06:48.864Z,32.84
2017-05-25T07:07:48.594Z,32.18
2017-05-25T07:08:48.937Z,32.97
2017-05-25T07:09:48.972Z,33.12
2017-05-25T07:10:49.012Z,33.02
2017-05-25T07:12:49.085Z,31.59
2017-05-25T07:13:49.125Z,31.88
2017-05-25T07:14:49.160Z,32.94
2017-05-25T07:15:49.198Z,32.06
2017-05-25T07:16:49.235Z,30.91
2017-05-25T07:17:49.272Z,31.12
2017-05-25T07:18:49.007Z,30.81
2017-05-25T07:19:49.347Z,32.63
2017-05-25T07:20:49.384Z,34.52
2017-05-25T07:21:49.422Z,34.8
2017-05-25T07:22:49.461Z,34.12
2017-05-25T07:23:49.498Z,34.61
2017-05-25T07:24:49.231Z,34.53
2017-05-25T07:25:49.572Z,35.37
2017-05-25T07:26:49.609Z,35.17
2017-05-25T07:27:49.646Z,34.24
2017-05-25T07:28:49.683Z,33.67
2017-05-25T07:29:49.721Z,33.09
2017-05-25T07:30:49.759Z,34.43
2017-05-25T07:31:49.796Z,36.21
2017-05-25T07:33:04.451Z,35.05
2017-05-25T07:33:49.869Z,33.93
2017-05-25T07:34:49.906Z,33.67
2017-05-25T07:35:49.947Z,32.71
2017-05-25T07:36:49.980Z,33.11
2017-05-25T07:37:49.718Z,33.01
2017-05-25T07:38:50.058Z,31.87
2017-05-25T07:39:50.091Z,31.12
2017-05-25T07:40:49.824Z,32.53
2017-05-25T07:41:49.862Z,33.46
2017-05-25T07:42:50.202Z,32.62
2017-05-25T07:44:50.318Z,33.77
2017-05-25T07:45:50.314Z,35.02
2017-05-25T07:46:50.349Z,35.29
2017-05-25T07:47:50.388Z,34.82
2017-05-25T07:49:05.043Z,35.02
2017-05-25T07:49:50.473Z,34.05
2017-05-25T07:50:50.498Z,35.99
2017-05-25T07:51:50.532Z,36.77
2017-05-25T07:52:50.569Z,36.21
2017-05-25T07:53:50.608Z,36.54
2017-05-25T07:54:50.640Z,35.27
2017-05-25T07:55:50.677Z,34.14
2017-05-25T07:56:50.715Z,33.77
2017-05-25T07:57:50.751Z,33.96
2017-05-25T07:58:50.787Z,33.69
2017-05-25T07:59:50.822Z,32.32
2017-05-25T08:00:50.861Z,33.77
2017-05-25T08:01:50.896Z,33.67
2017-05-25T08:02:50.931Z,32.99
2017-05-25T08:03:50.968Z,32.82
2017-05-25T08:05:05.624Z,31.85
2017-05-25T08:05:51.043Z,32.34
2017-05-25T08:06:51.077Z,31.57
2017-05-25T08:07:51.116Z,32.05
2017-05-25T08:08:51.150Z,32.81
2017-05-25T08:09:51.187Z,32.71
2017-05-25T08:10:51.224Z,31.57
2017-05-25T08:11:51.261Z,31.49
2017-05-25T08:12:51.298Z,30.83
2017-05-25T08:13:51.335Z,33.22
2017-05-25T08:14:51.370Z,33.85
2017-05-25T08:15:51.405Z,35.08
2017-05-25T08:16:51.441Z,35.74
2017-05-25T08:17:51.536Z,36.79
2017-05-25T08:18:51.520Z,36.89
2017-05-25T08:19:51.549Z,36.89
2017-05-25T08:21:06.205Z,37.84
2017-05-25T08:21:51.621Z,39.16
2017-05-25T08:22:51.657Z,40.69
2017-05-25T08:23:51.690Z,40.59
2017-05-25T08:24:51.727Z,40.33
2017-05-25T08:25:51.763Z,38.04
2017-05-25T08:26:51.809Z,38.32
2017-05-25T08:27:51.831Z,38.23
2017-05-25T08:28:51.865Z,38.04
2017-05-25T08:29:51.902Z,37.92
2017-05-25T08:30:51.934Z,37.92
2017-05-25T08:31:51.970Z,39.53
2017-05-25T08:32:52.009Z,39.34
2017-05-25T08:33:52.042Z,39.45
2017-05-25T08:34:52.077Z,39.18
2017-05-25T08:36:06.729Z,39.94
2017-05-25T08:36:52.145Z,40.5
2017-05-25T08:37:52.178Z,40.96
2017-05-25T08:38:52.214Z,41.16
2017-05-25T08:39:52.250Z,41.17
2017-05-25T08:40:52.283Z,40.5
2017-05-25T08:41:52.317Z,40.33
2017-05-25T08:42:52.350Z,39.45
2017-05-25T08:43:52.080Z,38.5
2017-05-25T08:44:52.426Z,38.99
2017-05-25T08:45:52.451Z,38.39
2017-05-25T08:46:52.486Z,39.18
2017-05-25T08:47:52.522Z,40.38
2017-05-25T08:48:52.250Z,39.34
2017-05-25T08:49:52.591Z,39.53
2017-05-25T08:50:52.621Z,39.06
2017-05-25T08:51:52.656Z,39.47
2017-05-25T08:52:52.688Z,43.63
2017-05-25T08:53:52.723Z,44.73
2017-05-25T08:54:52.757Z,43.61
2017-05-25T08:55:52.789Z,44.02
2017-05-25T08:56:52.823Z,43.82
2017-05-25T08:57:52.859Z,43.41
2017-05-25T08:58:52.891Z,45.04
2017-05-25T08:59:52.922Z,45.5
2017-05-25T09:00:52.956Z,46.44
2017-05-25T09:01:52.989Z,47.22
2017-05-25T09:02:53.022Z,49.1
2017-05-25T09:04:53.095Z,50.69
2017-05-25T09:05:53.128Z,50.88
2017-05-25T09:06:53.152Z,50.01
2017-05-25T09:08:07.801Z,49.07
2017-05-25T09:08:52.910Z,48.69
2017-05-25T09:09:53.245Z,48.81
2017-05-25T09:10:53.274Z,47.96
2017-05-25T09:11:53.307Z,48.54
2017-05-25T09:12:53.339Z,47.55
2017-05-25T09:13:53.372Z,47.19
2017-05-25T09:14:53.401Z,46.92
2017-05-25T09:15:53.433Z,46.06
2017-05-25T09:16:53.166Z,46.23
2017-05-25T09:17:53.493Z,47.02
2017-05-25T09:18:53.522Z,47
2017-05-25T09:20:53.584Z,46.34
2017-05-25T09:21:53.615Z,45.31
2017-05-25T09:22:53.646Z,45.01
2017-05-25T09:24:08.294Z,45.76
2017-05-25T09:24:53.404Z,46.44
2017-05-25T09:25:53.736Z,47.19
2017-05-25T09:26:53.767Z,46.9
2017-05-25T09:27:53.801Z,47
2017-05-25T09:28:53.830Z,47.12
2017-05-25T09:29:53.858Z,47.7
2017-05-25T09:30:53.887Z,47.96
2017-05-25T09:31:53.920Z,48.61
2017-05-25T09:32:53.949Z,49
2017-05-25T09:33:53.978Z,48.81
2017-05-25T09:34:54.013Z,48.54
2017-05-25T09:35:54.039Z,47.7
2017-05-25T09:36:54.070Z,48.54
2017-05-25T09:37:54.101Z,48.35
2017-05-25T09:38:54.129Z,47.05
2017-05-25T09:40:08.777Z,45.52
2017-05-25T09:40:54.191Z,44.56
2017-05-25T09:41:54.219Z,45.16
2017-05-25T09:42:54.552Z,45.04
2017-05-25T09:43:54.280Z,45.14
2017-05-25T09:44:54.309Z,44.75
2017-05-25T09:45:54.341Z,47.24
2017-05-25T09:47:54.400Z,48.81
2017-05-25T09:48:54.429Z,49.1
2017-05-25T09:49:54.461Z,49.1
2017-05-25T09:50:54.487Z,49.29
2017-05-25T09:51:54.516Z,48.61
2017-05-25T09:52:54.248Z,47.48
2017-05-25T09:53:54.579Z,47.67
2017-05-25T09:54:54.608Z,48.54
2017-05-25T09:56:09.255Z,47.58
2017-05-25T09:56:54.666Z,47.67
2017-05-25T09:57:54.695Z,47
2017-05-25T09:58:54.727Z,47.96
2017-05-25T09:59:54.756Z,47.48
2017-05-25T10:00:54.785Z,46.92
2017-05-25T10:01:54.813Z,46.95
2017-05-25T10:02:54.857Z,46.49
2017-05-25T10:03:54.872Z,45.79
2017-05-25T10:04:54.905Z,46.39
2017-05-25T10:05:54.937Z,46.66
2017-05-25T10:06:54.962Z,46.47
2017-05-25T10:08:55.023Z,49.1
2017-05-25T10:09:55.055Z,50.26
2017-05-25T10:11:09.705Z,49.96
2017-05-25T10:11:55.112Z,50.06
2017-05-25T10:12:55.143Z,49.32
2017-05-25T10:13:55.173Z,49.65
2017-05-25T10:14:55.201Z,49.77
2017-05-25T10:15:55.230Z,49.94
2017-05-25T10:16:55.259Z,49.1
2017-05-25T10:17:55.292Z,48.9
2017-05-25T10:18:55.322Z,48.64
2017-05-25T10:19:55.045Z,49.58
2017-05-25T10:21:55.407Z,49.48
2017-05-25T10:23:55.475Z,49.58
2017-05-25T10:24:55.495Z,49.29
2017-05-25T10:25:55.219Z,49.68
2017-05-25T10:26:55.564Z,49.29
2017-05-25T10:28:55.679Z,50.16
2017-05-25T10:29:55.652Z,48.42
2017-05-25T10:30:55.676Z,49.19
2017-05-25T10:31:55.708Z,48.9
2017-05-25T10:32:55.728Z,48.83
2017-05-25T10:33:55.756Z,47.96
2017-05-25T10:34:55.481Z,48.08
2017-05-25T10:35:55.827Z,47.33
2017-05-25T10:36:55.843Z,47.5
2017-05-25T10:37:55.873Z,46.39
2017-05-25T10:38:55.903Z,45.52
2017-05-25T10:39:55.629Z,44.96
2017-05-25T10:40:55.964Z,45.25
2017-05-25T10:41:55.990Z,45.33
2017-05-25T10:43:10.638Z,46.08
2017-05-25T10:43:55.745Z,46.92
2017-05-25T10:44:56.081Z,47.22
2017-05-25T10:45:56.108Z,47.02
2017-05-25T10:46:56.138Z,47.7
2017-05-25T10:47:56.168Z,47.89
2017-05-25T10:48:56.198Z,47.96
2017-05-25T10:49:56.226Z,48.83
2017-05-25T10:50:56.256Z,48.61
2017-05-25T10:51:56.286Z,49.29
2017-05-25T10:52:56.013Z,49.58
2017-05-25T10:53:56.345Z,50.52
2017-05-25T10:54:56.378Z,50.69
2017-05-25T10:55:56.402Z,51.56
2017-05-25T10:56:56.430Z,52.71
2017-05-25T10:57:56.462Z,52.52
2017-05-25T10:59:11.106Z,51.77
2017-05-25T10:59:56.519Z,51.77
2017-05-25T11:00:56.546Z,51.77
2017-05-25T11:01:56.575Z,51.77
2017-05-25T11:02:56.606Z,51.97
2017-05-25T11:03:56.633Z,51.94
2017-05-25T11:04:56.663Z,52.23
2017-05-25T11:05:56.690Z,52.61
2017-05-25T11:06:56.719Z,51.75
2017-05-25T11:07:56.747Z,51.65
2017-05-25T11:08:56.777Z,51.97
2017-05-25T11:09:56.806Z,52.42
2017-05-25T11:11:56.861Z,52.16
2017-05-25T11:12:56.891Z,51.41
2017-05-25T11:13:56.917Z,50.9
2017-05-25T11:15:11.564Z,50.74
2017-05-25T11:15:56.974Z,50.74
2017-05-25T11:16:57.007Z,51.87
2017-05-25T11:17:57.034Z,52.06
2017-05-25T11:18:57.060Z,51.65
2017-05-25T11:19:57.090Z,51.68
2017-05-25T11:20:57.118Z,52.45
2017-05-25T11:21:57.147Z,53.29
2017-05-25T11:22:57.176Z,53.09
2017-05-25T11:23:57.202Z,53.39
2017-05-25T11:24:57.231Z,53.65
2017-05-25T11:25:57.258Z,53.77
2017-05-25T11:26:57.288Z,53.39
2017-05-25T11:27:57.320Z,53.29
2017-05-25T11:28:57.344Z,53.58
2017-05-25T11:29:57.374Z,53
2017-05-25T11:31:12.019Z,52.55
2017-05-25T11:31:57.432Z,53.03
2017-05-25T11:32:57.458Z,52.64
2017-05-25T11:33:57.491Z,53
2017-05-25T11:34:57.515Z,53.39
2017-05-25T11:35:57.543Z,53.58
2017-05-25T11:36:57.569Z,54.32
2017-05-25T11:37:57.601Z,54.8
2017-05-25T11:38:57.324Z,55.07
2017-05-25T11:39:57.350Z,55.83
2017-05-25T11:40:57.682Z,56.67
2017-05-25T11:41:57.709Z,56.48
2017-05-25T11:42:57.744Z,56.41
2017-05-25T11:43:57.464Z,56.58
2017-05-25T11:44:57.553Z,56.32
2017-05-25T11:46:12.441Z,56.9
2017-05-25T11:46:57.849Z,57.35
2017-05-25T11:47:57.879Z,56.6
2017-05-25T11:48:57.906Z,56.44
2017-05-25T11:49:57.934Z,56.54
2017-05-25T11:50:57.962Z,56.15
2017-05-25T11:51:57.989Z,56.25
2017-05-25T11:53:58.046Z,55.77
2017-05-25T11:54:58.073Z,55.57
2017-05-25T11:55:58.100Z,56.51
2017-05-25T11:57:58.157Z,57.45
2017-05-25T11:59:58.210Z,57.83
2017-05-25T12:00:58.240Z,57.73
2017-05-25T12:01:58.266Z,57.92
2017-05-25T12:02:58.294Z,57.54
2017-05-25T12:03:58.320Z,57.57
2017-05-25T12:04:58.350Z,58.5
2017-05-25T12:05:58.376Z,58.12
2017-05-25T12:06:58.402Z,57.45
2017-05-25T12:07:58.429Z,57.54
2017-05-25T12:08:58.463Z,57.25
2017-05-25T12:09:58.488Z,57.28
2017-05-25T12:10:58.510Z,57.09
2017-05-25T12:11:58.543Z,57.28
2017-05-25T12:13:58.597Z,56.44
2017-05-25T12:14:58.622Z,56.05
2017-05-25T12:15:58.654Z,55.77
2017-05-25T12:16:58.678Z,55.87
2017-05-25T12:18:13.321Z,55.51
2017-05-25T12:18:58.733Z,56.32
2017-05-25T12:19:58.759Z,56.51
2017-05-25T12:20:58.785Z,56.29
2017-05-25T12:21:58.812Z,56.58
2017-05-25T12:22:58.841Z,56.96
2017-05-25T12:23:58.869Z,56.96
2017-05-25T12:24:58.895Z,56.51
2017-05-25T12:25:58.923Z,56.8
2017-05-25T12:26:58.955Z,56.22
2017-05-25T12:27:58.976Z,55.83
2017-05-25T12:28:59.003Z,54.78
2017-05-25T12:29:59.036Z,55.81
2017-05-25T12:32:59.113Z,55.45
2017-05-25T12:34:13.758Z,56.48
2017-05-25T12:34:59.176Z,56.58
2017-05-25T12:35:59.195Z,55.9
2017-05-25T12:36:59.221Z,55.71
2017-05-25T12:37:59.250Z,55.23
2017-05-25T12:38:59.276Z,54.85
2017-05-25T12:39:59.304Z,55.33
2017-05-25T12:40:59.333Z,55.35
2017-05-25T12:41:59.361Z,55.35
2017-05-25T12:42:59.387Z,54.78
2017-05-25T12:43:59.416Z,53.94
2017-05-25T12:45:59.469Z,54.39
2017-05-25T12:46:59.495Z,54.94
2017-05-25T12:47:59.526Z,55.43
2017-05-25T12:48:59.551Z,54.1
2017-05-25T12:50:14.194Z,53.74
2017-05-25T12:50:59.605Z,53.45
2017-05-25T12:51:59.632Z,52.71
2017-05-25T12:52:59.362Z,53.53
2017-05-25T12:53:59.687Z,54.56
2017-05-25T12:54:59.715Z,54.36
2017-05-25T12:55:59.740Z,54.75
2017-05-25T12:56:59.774Z,55.13
2017-05-25T12:57:59.804Z,54.94
2017-05-25T12:59:59.850Z,54.08
2017-05-25T13:00:59.876Z,53.72
2017-05-25T13:02:59.931Z,55.33
2017-05-25T13:03:59.958Z,54.46
2017-05-25T13:04:59.989Z,54.36
2017-05-25T13:06:14.630Z,54.94
2017-05-25T13:07:00.041Z,54.49
2017-05-25T13:08:00.068Z,55.35
2017-05-25T13:09:00.093Z,54.49
2017-05-25T13:10:00.121Z,55.45
2017-05-25T13:10:59.844Z,55.07
2017-05-25T13:11:59.870Z,56.29
2017-05-25T13:12:59.900Z,56.84
2017-05-25T13:13:59.927Z,56.45
2017-05-25T13:15:00.256Z,56.84
2017-05-25T13:16:00.282Z,56.67
2017-05-25T13:17:00.308Z,57.35
2017-05-25T13:18:00.035Z,57.35
2017-05-25T13:19:00.382Z,56.77
2017-05-25T13:20:00.409Z,58.18
2017-05-25T13:21:15.036Z,59.12
2017-05-25T13:22:00.447Z,59.12
2017-05-25T13:23:00.472Z,59.02
2017-05-25T13:24:00.500Z,59.12
2017-05-25T13:25:00.224Z,59.02
2017-05-25T13:26:00.552Z,58.54
2017-05-25T13:27:00.580Z,59.5
2017-05-25T13:28:00.608Z,59.79
2017-05-25T13:29:00.637Z,59.79
2017-05-25T13:30:00.661Z,60.34
2017-05-25T13:31:00.687Z,59.66
2017-05-25T13:33:00.742Z,60.46
2017-05-25T13:34:00.766Z,60.27
2017-05-25T13:35:00.795Z,60.27
2017-05-25T13:36:00.825Z,60.37
2017-05-25T13:37:00.847Z,59.99